sensor_id;sensor_type;location;lat;lon;timestamp;temperature;humidity
20726;DHT22;10524;48.132;8.518;2023-09-19T00:01:40;13.00;99.90
20726;DHT22;10524;48.132;8.518;2023-09-19T00:04:08;12.90;99.90
20726;DHT22;10524;48.132;8.518;2023-09-19T00:06:38;12.90;99.90
20726;DHT22;10524;48.132;8.518;2023-09-19T00:09:05;12.90;99.90
20726;DHT22;10524;48.132;8.518;2023-09-19T00:11:31;12.90;99.90
20726;DHT22;10524;48.132;8.518;2023-09-19T00:13:57;12.90;99.90
20726;DHT22;10524;48.132;8.518;2023-09-19T00:16:26;12.90;99.90
20726;DHT22;10524;48.132;8.518;2023-09-19T00:18:52;13.00;99.90
20726;DHT22;10524;48.132;8.518;2023-09-19T00:21:18;13.00;99.90
20726;DHT22;10524;48.132;8.518;2023-09-19T00:23:47;13.10;99.90
20726;DHT22;10524;48.132;8.518;2023-09-19T00:26:13;13.10;99.90
20726;DHT22;10524;48.132;8.518;2023-09-19T00:28:43;13.10;99.90
20726;DHT22;10524;48.132;8.518;2023-09-19T00:31:09;13.10;99.90
20726;DHT22;10524;48.132;8.518;2023-09-19T00:33:35;13.10;99.90
20726;DHT22;10524;48.132;8.518;2023-09-19T00:36:02;13.00;99.90
20726;DHT22;10524;48.132;8.518;2023-09-19T00:38:30;13.00;99.90
20726;DHT22;10524;48.132;8.518;2023-09-19T00:40:57;13.00;99.90
20726;DHT22;10524;48.132;8.518;2023-09-19T00:43:25;13.00;99.90
20726;DHT22;10524;48.132;8.518;2023-09-19T00:45:53;13.00;99.90
20726;DHT22;10524;48.132;8.518;2023-09-19T00:48:21;13.00;99.90
20726;DHT22;10524;48.132;8.518;2023-09-19T00:50:47;13.10;99.90
20726;DHT22;10524;48.132;8.518;2023-09-19T00:53:18;13.10;99.90
20726;DHT22;10524;48.132;8.518;2023-09-19T00:55:45;13.10;99.90
20726;DHT22;10524;48.132;8.518;2023-09-19T00:58:11;13.10;99.90
20726;DHT22;10524;48.132;8.518;2023-09-19T01:00:37;13.10;99.90
20726;DHT22;10524;48.132;8.518;2023-09-19T01:03:05;13.20;99.90
20726;DHT22;10524;48.132;8.518;2023-09-19T01:05:34;13.20;99.90
20726;DHT22;10524;48.132;8.518;2023-09-19T01:08:00;13.10;99.90
20726;DHT22;10524;48.132;8.518;2023-09-19T01:10:26;13.10;99.90
20726;DHT22;10524;48.132;8.518;2023-09-19T01:13:22;13.00;99.90
20726;DHT22;10524;48.132;8.518;2023-09-19T01:21:15;12.80;99.90
20726;DHT22;10524;48.132;8.518;2023-09-19T01:26:55;12.70;99.90
20726;DHT22;10524;48.132;8.518;2023-09-19T01:29:39;12.70;99.90
20726;DHT22;10524;48.132;8.518;2023-09-19T01:32:08;12.60;99.90
20726;DHT22;10524;48.132;8.518;2023-09-19T01:37:19;12.60;99.90
20726;DHT22;10524;48.132;8.518;2023-09-19T01:39:53;12.60;99.90
20726;DHT22;10524;48.132;8.518;2023-09-19T01:52:59;12.70;99.90
20726;DHT22;10524;48.132;8.518;2023-09-19T01:55:30;12.80;99.90
20726;DHT22;10524;48.132;8.518;2023-09-19T01:58:08;12.90;99.90
20726;DHT22;10524;48.132;8.518;2023-09-19T02:00:41;12.90;99.90
20726;DHT22;10524;48.132;8.518;2023-09-19T02:03:09;13.00;99.90
20726;DHT22;10524;48.132;8.518;2023-09-19T02:05:35;13.10;99.90
20726;DHT22;10524;48.132;8.518;2023-09-19T02:08:01;13.10;99.90
20726;DHT22;10524;48.132;8.518;2023-09-19T02:10:27;13.10;99.90
20726;DHT22;10524;48.132;8.518;2023-09-19T02:12:52;13.10;99.90
20726;DHT22;10524;48.132;8.518;2023-09-19T02:15:20;13.20;99.90
20726;DHT22;10524;48.132;8.518;2023-09-19T02:17:48;13.20;99.90
20726;DHT22;10524;48.132;8.518;2023-09-19T02:20:14;13.20;99.90
20726;DHT22;10524;48.132;8.518;2023-09-19T02:22:44;13.20;99.90
20726;DHT22;10524;48.132;8.518;2023-09-19T02:25:10;13.20;99.90
20726;DHT22;10524;48.132;8.518;2023-09-19T02:27:36;13.30;99.90
20726;DHT22;10524;48.132;8.518;2023-09-19T02:30:05;13.20;99.90
20726;DHT22;10524;48.132;8.518;2023-09-19T02:32:31;13.20;99.90
20726;DHT22;10524;48.132;8.518;2023-09-19T02:35:01;13.20;99.90
20726;DHT22;10524;48.132;8.518;2023-09-19T02:37:29;13.20;99.90
20726;DHT22;10524;48.132;8.518;2023-09-19T02:39:55;13.20;99.90
20726;DHT22;10524;48.132;8.518;2023-09-19T02:42:21;13.20;99.90
20726;DHT22;10524;48.132;8.518;2023-09-19T02:44:48;13.20;99.90
20726;DHT22;10524;48.132;8.518;2023-09-19T02:47:14;13.20;99.90
20726;DHT22;10524;48.132;8.518;2023-09-19T02:49:40;13.20;99.90
20726;DHT22;10524;48.132;8.518;2023-09-19T02:52:09;13.20;99.90
20726;DHT22;10524;48.132;8.518;2023-09-19T02:54:37;13.20;99.90
20726;DHT22;10524;48.132;8.518;2023-09-19T02:57:03;13.20;99.90
20726;DHT22;10524;48.132;8.518;2023-09-19T02:59:32;13.10;99.90
20726;DHT22;10524;48.132;8.518;2023-09-19T03:01:57;13.10;99.90
20726;DHT22;10524;48.132;8.518;2023-09-19T03:04:24;13.10;99.90
20726;DHT22;10524;48.132;8.518;2023-09-19T03:06:52;13.10;99.90
20726;DHT22;10524;48.132;8.518;2023-09-19T03:09:22;13.10;99.90
20726;DHT22;10524;48.132;8.518;2023-09-19T03:11:49;13.10;99.90
20726;DHT22;10524;48.132;8.518;2023-09-19T03:14:15;13.10;99.90
20726;DHT22;10524;48.132;8.518;2023-09-19T03:16:41;13.00;99.90
20726;DHT22;10524;48.132;8.518;2023-09-19T03:19:08;13.00;99.90
20726;DHT22;10524;48.132;8.518;2023-09-19T03:21:36;12.90;99.90
20726;DHT22;10524;48.132;8.518;2023-09-19T03:24:03;12.90;99.90
20726;DHT22;10524;48.132;8.518;2023-09-19T03:26:29;13.00;99.90
20726;DHT22;10524;48.132;8.518;2023-09-19T03:28:56;13.00;99.90
20726;DHT22;10524;48.132;8.518;2023-09-19T03:31:22;13.00;99.90
20726;DHT22;10524;48.132;8.518;2023-09-19T03:33:48;13.00;99.90
20726;DHT22;10524;48.132;8.518;2023-09-19T03:36:13;13.00;99.90
20726;DHT22;10524;48.132;8.518;2023-09-19T03:38:39;13.00;99.90
20726;DHT22;10524;48.132;8.518;2023-09-19T03:41:06;13.00;99.90
20726;DHT22;10524;48.132;8.518;2023-09-19T03:43:35;13.00;99.90
20726;DHT22;10524;48.132;8.518;2023-09-19T03:46:03;13.10;99.90
20726;DHT22;10524;48.132;8.518;2023-09-19T03:48:34;13.10;99.90
20726;DHT22;10524;48.132;8.518;2023-09-19T03:51:00;13.10;99.90
20726;DHT22;10524;48.132;8.518;2023-09-19T03:53:26;13.10;99.90
20726;DHT22;10524;48.132;8.518;2023-09-19T03:55:52;13.10;99.90
20726;DHT22;10524;48.132;8.518;2023-09-19T03:58:18;13.10;99.90
20726;DHT22;10524;48.132;8.518;2023-09-19T04:00:44;13.10;99.90
20726;DHT22;10524;48.132;8.518;2023-09-19T04:03:10;13.10;99.90
20726;DHT22;10524;48.132;8.518;2023-09-19T04:05:45;13.10;99.90
20726;DHT22;10524;48.132;8.518;2023-09-19T04:08:12;13.10;99.90
20726;DHT22;10524;48.132;8.518;2023-09-19T04:10:38;13.10;99.90
20726;DHT22;10524;48.132;8.518;2023-09-19T04:13:04;13.10;99.90
20726;DHT22;10524;48.132;8.518;2023-09-19T04:15:30;13.10;99.90
20726;DHT22;10524;48.132;8.518;2023-09-19T04:17:56;13.10;99.90
20726;DHT22;10524;48.132;8.518;2023-09-19T04:20:22;13.10;99.90
20726;DHT22;10524;48.132;8.518;2023-09-19T04:22:48;13.10;99.90
20726;DHT22;10524;48.132;8.518;2023-09-19T04:25:14;13.10;99.90
20726;DHT22;10524;48.132;8.518;2023-09-19T04:27:40;13.20;99.90
20726;DHT22;10524;48.132;8.518;2023-09-19T04:30:09;13.20;99.90
20726;DHT22;10524;48.132;8.518;2023-09-19T04:32:40;13.20;99.90
20726;DHT22;10524;48.132;8.518;2023-09-19T04:35:10;13.20;99.90
20726;DHT22;10524;48.132;8.518;2023-09-19T04:37:40;13.10;99.90
20726;DHT22;10524;48.132;8.518;2023-09-19T04:40:08;13.10;99.90
20726;DHT22;10524;48.132;8.518;2023-09-19T04:42:43;13.10;99.90
20726;DHT22;10524;48.132;8.518;2023-09-19T04:45:10;13.10;99.90
20726;DHT22;10524;48.132;8.518;2023-09-19T04:47:37;13.00;99.90
20726;DHT22;10524;48.132;8.518;2023-09-19T04:50:10;12.90;99.90
20726;DHT22;10524;48.132;8.518;2023-09-19T04:52:39;12.80;99.90
20726;DHT22;10524;48.132;8.518;2023-09-19T04:55:05;12.80;99.90
20726;DHT22;10524;48.132;8.518;2023-09-19T04:57:31;12.70;99.90
20726;DHT22;10524;48.132;8.518;2023-09-19T04:59:57;12.60;99.90
20726;DHT22;10524;48.132;8.518;2023-09-19T05:02:23;12.50;99.90
20726;DHT22;10524;48.132;8.518;2023-09-19T05:04:48;12.40;99.90
20726;DHT22;10524;48.132;8.518;2023-09-19T05:07:14;12.40;99.90
20726;DHT22;10524;48.132;8.518;2023-09-19T05:09:40;12.40;99.90
20726;DHT22;10524;48.132;8.518;2023-09-19T05:12:07;12.30;99.90
20726;DHT22;10524;48.132;8.518;2023-09-19T05:14:36;12.30;99.90
20726;DHT22;10524;48.132;8.518;2023-09-19T05:17:02;12.40;99.90
20726;DHT22;10524;48.132;8.518;2023-09-19T05:19:29;12.40;99.90
20726;DHT22;10524;48.132;8.518;2023-09-19T05:21:55;12.50;99.90
20726;DHT22;10524;48.132;8.518;2023-09-19T05:24:21;12.50;99.90
20726;DHT22;10524;48.132;8.518;2023-09-19T05:26:48;12.50;99.90
20726;DHT22;10524;48.132;8.518;2023-09-19T05:29:14;12.80;99.90
20726;DHT22;10524;48.132;8.518;2023-09-19T05:31:40;13.30;99.90
20726;DHT22;10524;48.132;8.518;2023-09-19T05:34:08;13.90;99.90
20726;DHT22;10524;48.132;8.518;2023-09-19T05:36:35;14.40;99.90
20726;DHT22;10524;48.132;8.518;2023-09-19T05:39:01;14.80;99.90
20726;DHT22;10524;48.132;8.518;2023-09-19T05:41:27;14.80;99.90
20726;DHT22;10524;48.132;8.518;2023-09-19T05:43:52;14.70;99.90
20726;DHT22;10524;48.132;8.518;2023-09-19T05:46:18;14.70;99.90
20726;DHT22;10524;48.132;8.518;2023-09-19T05:48:44;15.20;99.90
20726;DHT22;10524;48.132;8.518;2023-09-19T05:51:10;15.80;99.90
20726;DHT22;10524;48.132;8.518;2023-09-19T05:53:36;16.30;99.90
20726;DHT22;10524;48.132;8.518;2023-09-19T05:56:01;16.70;99.90
20726;DHT22;10524;48.132;8.518;2023-09-19T05:58:27;16.60;99.90
20726;DHT22;10524;48.132;8.518;2023-09-19T06:00:53;16.10;99.90
20726;DHT22;10524;48.132;8.518;2023-09-19T06:03:18;15.60;99.90
20726;DHT22;10524;48.132;8.518;2023-09-19T06:05:46;15.40;99.90
20726;DHT22;10524;48.132;8.518;2023-09-19T06:08:14;15.20;99.90
20726;DHT22;10524;48.132;8.518;2023-09-19T06:10:40;15.20;99.90
20726;DHT22;10524;48.132;8.518;2023-09-19T06:13:07;15.40;99.90
20726;DHT22;10524;48.132;8.518;2023-09-19T06:15:36;15.90;99.90
20726;DHT22;10524;48.132;8.518;2023-09-19T06:18:01;16.00;99.90
20726;DHT22;10524;48.132;8.518;2023-09-19T06:20:30;16.10;99.90
20726;DHT22;10524;48.132;8.518;2023-09-19T06:22:56;16.00;99.90
20726;DHT22;10524;48.132;8.518;2023-09-19T06:25:22;15.80;99.90
20726;DHT22;10524;48.132;8.518;2023-09-19T06:27:49;15.50;99.90
20726;DHT22;10524;48.132;8.518;2023-09-19T06:30:18;15.40;99.90
20726;DHT22;10524;48.132;8.518;2023-09-19T06:32:44;15.30;99.90
20726;DHT22;10524;48.132;8.518;2023-09-19T06:35:11;15.30;99.90
20726;DHT22;10524;48.132;8.518;2023-09-19T06:37:37;15.20;99.90
20726;DHT22;10524;48.132;8.518;2023-09-19T06:40:13;15.10;99.90
20726;DHT22;10524;48.132;8.518;2023-09-19T06:42:41;15.00;99.90
20726;DHT22;10524;48.132;8.518;2023-09-19T06:45:07;15.00;99.90
20726;DHT22;10524;48.132;8.518;2023-09-19T06:47:34;14.90;99.90
20726;DHT22;10524;48.132;8.518;2023-09-19T06:49:59;14.90;99.90
20726;DHT22;10524;48.132;8.518;2023-09-19T06:52:28;14.90;99.90
20726;DHT22;10524;48.132;8.518;2023-09-19T06:54:54;15.00;99.90
20726;DHT22;10524;48.132;8.518;2023-09-19T06:57:19;15.20;99.90
20726;DHT22;10524;48.132;8.518;2023-09-19T06:59:45;15.50;99.90
20726;DHT22;10524;48.132;8.518;2023-09-19T07:02:11;15.70;99.90
20726;DHT22;10524;48.132;8.518;2023-09-19T07:04:39;15.90;99.90
20726;DHT22;10524;48.132;8.518;2023-09-19T07:07:06;16.00;99.90
20726;DHT22;10524;48.132;8.518;2023-09-19T07:09:34;16.30;99.90
20726;DHT22;10524;48.132;8.518;2023-09-19T07:12:03;16.40;99.90
20726;DHT22;10524;48.132;8.518;2023-09-19T07:14:28;16.90;99.90
20726;DHT22;10524;48.132;8.518;2023-09-19T07:16:55;17.20;99.90
20726;DHT22;10524;48.132;8.518;2023-09-19T07:19:23;17.60;99.90
20726;DHT22;10524;48.132;8.518;2023-09-19T07:21:48;17.80;99.90
20726;DHT22;10524;48.132;8.518;2023-09-19T07:24:15;17.40;99.90
20726;DHT22;10524;48.132;8.518;2023-09-19T07:26:41;16.70;99.90
20726;DHT22;10524;48.132;8.518;2023-09-19T07:29:07;16.30;99.90
20726;DHT22;10524;48.132;8.518;2023-09-19T07:31:34;16.20;99.90
20726;DHT22;10524;48.132;8.518;2023-09-19T07:34:00;16.20;99.90
20726;DHT22;10524;48.132;8.518;2023-09-19T07:36:25;16.90;99.90
20726;DHT22;10524;48.132;8.518;2023-09-19T07:38:51;17.90;99.90
20726;DHT22;10524;48.132;8.518;2023-09-19T07:41:17;18.80;99.90
20726;DHT22;10524;48.132;8.518;2023-09-19T07:43:43;19.30;99.90
20726;DHT22;10524;48.132;8.518;2023-09-19T07:46:09;20.30;99.90
20726;DHT22;10524;48.132;8.518;2023-09-19T07:48:36;20.00;99.90
20726;DHT22;10524;48.132;8.518;2023-09-19T07:51:04;19.60;99.90
20726;DHT22;10524;48.132;8.518;2023-09-19T07:53:30;18.70;99.90
20726;DHT22;10524;48.132;8.518;2023-09-19T07:56:04;18.40;99.90
20726;DHT22;10524;48.132;8.518;2023-09-19T07:58:30;18.40;99.90
20726;DHT22;10524;48.132;8.518;2023-09-19T08:00:56;19.80;99.90
20726;DHT22;10524;48.132;8.518;2023-09-19T08:03:27;20.00;99.90
20726;DHT22;10524;48.132;8.518;2023-09-19T08:05:53;19.60;99.90
20726;DHT22;10524;48.132;8.518;2023-09-19T08:08:18;20.10;99.90
20726;DHT22;10524;48.132;8.518;2023-09-19T08:10:45;21.50;99.90
20726;DHT22;10524;48.132;8.518;2023-09-19T08:13:14;20.20;99.90
20726;DHT22;10524;48.132;8.518;2023-09-19T08:15:43;19.30;99.90
20726;DHT22;10524;48.132;8.518;2023-09-19T08:18:17;18.80;99.90
20726;DHT22;10524;48.132;8.518;2023-09-19T08:20:43;18.30;99.90
20726;DHT22;10524;48.132;8.518;2023-09-19T08:23:11;17.90;99.90
20726;DHT22;10524;48.132;8.518;2023-09-19T08:25:37;17.70;99.90
20726;DHT22;10524;48.132;8.518;2023-09-19T08:28:04;17.80;99.90
20726;DHT22;10524;48.132;8.518;2023-09-19T08:30:34;19.60;99.90
20726;DHT22;10524;48.132;8.518;2023-09-19T08:33:00;20.00;99.90
20726;DHT22;10524;48.132;8.518;2023-09-19T08:35:27;19.90;99.90
20726;DHT22;10524;48.132;8.518;2023-09-19T08:37:53;20.00;99.90
20726;DHT22;10524;48.132;8.518;2023-09-19T08:40:18;20.60;99.90
20726;DHT22;10524;48.132;8.518;2023-09-19T08:42:52;20.60;99.90
20726;DHT22;10524;48.132;8.518;2023-09-19T08:45:21;20.20;99.90
20726;DHT22;10524;48.132;8.518;2023-09-19T08:56:18;20.00;99.90
20726;DHT22;10524;48.132;8.518;2023-09-19T08:58:53;19.80;99.90
20726;DHT22;10524;48.132;8.518;2023-09-19T09:01:21;20.30;99.90
20726;DHT22;10524;48.132;8.518;2023-09-19T09:03:52;20.00;99.90
20726;DHT22;10524;48.132;8.518;2023-09-19T09:06:20;19.70;99.90
20726;DHT22;10524;48.132;8.518;2023-09-19T09:08:46;19.40;99.90
20726;DHT22;10524;48.132;8.518;2023-09-19T09:11:15;20.30;99.90
20726;DHT22;10524;48.132;8.518;2023-09-19T09:13:45;21.90;99.90
20726;DHT22;10524;48.132;8.518;2023-09-19T09:16:12;22.80;99.90
20726;DHT22;10524;48.132;8.518;2023-09-19T09:18:39;24.20;99.90
20726;DHT22;10524;48.132;8.518;2023-09-19T09:21:06;27.60;99.90
20726;DHT22;10524;48.132;8.518;2023-09-19T09:23:31;31.00;99.90
20726;DHT22;10524;48.132;8.518;2023-09-19T09:25:58;31.20;99.90
20726;DHT22;10524;48.132;8.518;2023-09-19T09:28:29;29.70;99.90
20726;DHT22;10524;48.132;8.518;2023-09-19T09:31:00;26.30;99.90
20726;DHT22;10524;48.132;8.518;2023-09-19T09:33:28;26.30;99.90
20726;DHT22;10524;48.132;8.518;2023-09-19T09:36:01;28.40;99.90
20726;DHT22;10524;48.132;8.518;2023-09-19T09:38:30;29.20;99.90
20726;DHT22;10524;48.132;8.518;2023-09-19T09:41:09;28.20;99.90
20726;DHT22;10524;48.132;8.518;2023-09-19T09:43:37;29.10;99.90
20726;DHT22;10524;48.132;8.518;2023-09-19T09:46:17;30.20;99.90
20726;DHT22;10524;48.132;8.518;2023-09-19T09:48:55;29.40;99.90
20726;DHT22;10524;48.132;8.518;2023-09-19T09:51:50;28.30;99.90
20726;DHT22;10524;48.132;8.518;2023-09-19T09:54:59;25.40;99.90
20726;DHT22;10524;48.132;8.518;2023-09-19T09:57:26;24.60;99.90
20726;DHT22;10524;48.132;8.518;2023-09-19T09:59:57;23.60;99.90
20726;DHT22;10524;48.132;8.518;2023-09-19T10:02:42;25.90;99.90
20726;DHT22;10524;48.132;8.518;2023-09-19T10:05:19;26.00;99.90
20726;DHT22;10524;48.132;8.518;2023-09-19T10:08:11;28.50;99.90
20726;DHT22;10524;48.132;8.518;2023-09-19T10:10:39;28.40;99.90
20726;DHT22;10524;48.132;8.518;2023-09-19T10:13:12;28.20;99.90
20726;DHT22;10524;48.132;8.518;2023-09-19T10:15:43;29.50;99.90
20726;DHT22;10524;48.132;8.518;2023-09-19T10:18:25;28.70;99.90
20726;DHT22;10524;48.132;8.518;2023-09-19T10:20:54;29.20;99.90
20726;DHT22;10524;48.132;8.518;2023-09-19T10:23:21;28.60;99.90
20726;DHT22;10524;48.132;8.518;2023-09-19T10:25:49;28.20;99.90
20726;DHT22;10524;48.132;8.518;2023-09-19T10:28:17;28.80;99.90
20726;DHT22;10524;48.132;8.518;2023-09-19T10:30:49;27.80;99.90
20726;DHT22;10524;48.132;8.518;2023-09-19T10:33:19;26.70;99.90
20726;DHT22;10524;48.132;8.518;2023-09-19T10:35:49;27.80;99.90
20726;DHT22;10524;48.132;8.518;2023-09-19T10:38:23;27.10;99.90
20726;DHT22;10524;48.132;8.518;2023-09-19T10:40:50;27.50;99.90
20726;DHT22;10524;48.132;8.518;2023-09-19T10:43:18;29.20;99.90
20726;DHT22;10524;48.132;8.518;2023-09-19T10:45:45;30.40;99.90
20726;DHT22;10524;48.132;8.518;2023-09-19T10:48:18;31.20;99.90
20726;DHT22;10524;48.132;8.518;2023-09-19T10:51:07;31.40;99.90
20726;DHT22;10524;48.132;8.518;2023-09-19T10:54:01;30.30;99.90
20726;DHT22;10524;48.132;8.518;2023-09-19T10:56:33;30.40;99.90
20726;DHT22;10524;48.132;8.518;2023-09-19T10:59:08;30.30;99.90
20726;DHT22;10524;48.132;8.518;2023-09-19T11:04:32;28.60;99.90
20726;DHT22;10524;48.132;8.518;2023-09-19T11:07:05;27.80;99.90
20726;DHT22;10524;48.132;8.518;2023-09-19T11:09:55;26.20;99.90
20726;DHT22;10524;48.132;8.518;2023-09-19T11:14:58;27.60;99.90
20726;DHT22;10524;48.132;8.518;2023-09-19T11:30:32;30.00;99.90
20726;DHT22;10524;48.132;8.518;2023-09-19T11:33:37;29.40;99.90
20726;DHT22;10524;48.132;8.518;2023-09-19T11:46:30;32.50;99.90
20726;DHT22;10524;48.132;8.518;2023-09-19T11:49:07;30.00;99.90
20726;DHT22;10524;48.132;8.518;2023-09-19T11:51:41;28.00;99.90
20726;DHT22;10524;48.132;8.518;2023-09-19T11:54:11;25.70;99.90
20726;DHT22;10524;48.132;8.518;2023-09-19T11:56:48;27.60;99.90
20726;DHT22;10524;48.132;8.518;2023-09-19T11:59:23;29.40;99.90
20726;DHT22;10524;48.132;8.518;2023-09-19T12:04:34;31.50;99.90
20726;DHT22;10524;48.132;8.518;2023-09-19T12:07:10;31.80;99.90
20726;DHT22;10524;48.132;8.518;2023-09-19T12:09:42;30.50;99.50
20726;DHT22;10524;48.132;8.518;2023-09-19T12:12:10;29.60;99.90
20726;DHT22;10524;48.132;8.518;2023-09-19T12:14:48;30.00;99.90
20726;DHT22;10524;48.132;8.518;2023-09-19T12:17:15;29.20;99.70
20726;DHT22;10524;48.132;8.518;2023-09-19T12:19:50;29.00;99.90
20726;DHT22;10524;48.132;8.518;2023-09-19T12:22:17;28.90;99.90
20726;DHT22;10524;48.132;8.518;2023-09-19T12:24:45;29.30;99.90
20726;DHT22;10524;48.132;8.518;2023-09-19T12:27:11;29.60;99.90
20726;DHT22;10524;48.132;8.518;2023-09-19T12:29:47;28.90;99.90
20726;DHT22;10524;48.132;8.518;2023-09-19T12:32:34;29.60;99.90
20726;DHT22;10524;48.132;8.518;2023-09-19T12:35:01;29.70;99.90
20726;DHT22;10524;48.132;8.518;2023-09-19T12:37:32;30.80;99.90
20726;DHT22;10524;48.132;8.518;2023-09-19T12:40:08;30.80;99.20
20726;DHT22;10524;48.132;8.518;2023-09-19T12:42:48;29.40;99.90
20726;DHT22;10524;48.132;8.518;2023-09-19T12:45:17;29.30;99.90
20726;DHT22;10524;48.132;8.518;2023-09-19T12:48:21;29.10;99.90
20726;DHT22;10524;48.132;8.518;2023-09-19T12:51:07;29.90;99.90
20726;DHT22;10524;48.132;8.518;2023-09-19T12:56:08;29.70;99.10
20726;DHT22;10524;48.132;8.518;2023-09-19T12:58:57;29.30;99.00
20726;DHT22;10524;48.132;8.518;2023-09-19T13:01:24;29.30;99.00
20726;DHT22;10524;48.132;8.518;2023-09-19T13:04:12;29.00;99.70
20726;DHT22;10524;48.132;8.518;2023-09-19T13:06:38;28.90;99.90
20726;DHT22;10524;48.132;8.518;2023-09-19T13:09:12;28.80;99.90
20726;DHT22;10524;48.132;8.518;2023-09-19T13:11:40;29.00;99.90
20726;DHT22;10524;48.132;8.518;2023-09-19T13:14:23;29.50;99.90
20726;DHT22;10524;48.132;8.518;2023-09-19T13:17:01;30.40;99.90
20726;DHT22;10524;48.132;8.518;2023-09-19T13:22:03;29.40;99.00
20726;DHT22;10524;48.132;8.518;2023-09-19T13:24:29;29.00;99.80
20726;DHT22;10524;48.132;8.518;2023-09-19T13:26:56;29.00;99.70
20726;DHT22;10524;48.132;8.518;2023-09-19T13:29:22;29.00;99.90
20726;DHT22;10524;48.132;8.518;2023-09-19T13:31:49;29.40;99.60
20726;DHT22;10524;48.132;8.518;2023-09-19T13:34:16;29.30;99.90
20726;DHT22;10524;48.132;8.518;2023-09-19T13:36:43;29.20;99.90
20726;DHT22;10524;48.132;8.518;2023-09-19T13:39:09;28.90;99.90
20726;DHT22;10524;48.132;8.518;2023-09-19T13:41:36;28.30;99.90
20726;DHT22;10524;48.132;8.518;2023-09-19T13:44:05;28.50;99.90
20726;DHT22;10524;48.132;8.518;2023-09-19T13:46:31;28.80;99.90
20726;DHT22;10524;48.132;8.518;2023-09-19T13:49:01;28.50;99.90
20726;DHT22;10524;48.132;8.518;2023-09-19T13:51:32;27.80;99.90
20726;DHT22;10524;48.132;8.518;2023-09-19T13:53:58;28.10;99.90
20726;DHT22;10524;48.132;8.518;2023-09-19T13:56:25;28.30;99.90
20726;DHT22;10524;48.132;8.518;2023-09-19T13:58:54;28.20;99.90
20726;DHT22;10524;48.132;8.518;2023-09-19T14:01:20;28.90;99.90
20726;DHT22;10524;48.132;8.518;2023-09-19T14:03:46;27.80;99.90
20726;DHT22;10524;48.132;8.518;2023-09-19T14:06:14;26.70;99.90
20726;DHT22;10524;48.132;8.518;2023-09-19T14:08:40;25.60;99.90
20726;DHT22;10524;48.132;8.518;2023-09-19T14:11:09;25.50;99.90
20726;DHT22;10524;48.132;8.518;2023-09-19T14:13:35;26.30;99.90
20726;DHT22;10524;48.132;8.518;2023-09-19T14:16:04;26.00;99.90
20726;DHT22;10524;48.132;8.518;2023-09-19T14:18:31;26.10;99.90
20726;DHT22;10524;48.132;8.518;2023-09-19T14:20:57;26.60;99.90
20726;DHT22;10524;48.132;8.518;2023-09-19T14:23:23;26.50;99.90
20726;DHT22;10524;48.132;8.518;2023-09-19T14:25:50;26.60;99.90
20726;DHT22;10524;48.132;8.518;2023-09-19T14:28:17;26.80;99.90
20726;DHT22;10524;48.132;8.518;2023-09-19T14:30:43;26.80;99.90
20726;DHT22;10524;48.132;8.518;2023-09-19T14:33:09;26.10;99.90
20726;DHT22;10524;48.132;8.518;2023-09-19T14:35:37;25.00;99.90
20726;DHT22;10524;48.132;8.518;2023-09-19T14:38:03;25.10;99.90
20726;DHT22;10524;48.132;8.518;2023-09-19T14:40:29;25.80;99.90
20726;DHT22;10524;48.132;8.518;2023-09-19T14:42:57;26.50;99.90
20726;DHT22;10524;48.132;8.518;2023-09-19T14:45:23;25.80;99.90
20726;DHT22;10524;48.132;8.518;2023-09-19T14:47:51;25.10;99.90
20726;DHT22;10524;48.132;8.518;2023-09-19T14:50:21;25.80;99.90
20726;DHT22;10524;48.132;8.518;2023-09-19T14:52:48;26.00;99.90
20726;DHT22;10524;48.132;8.518;2023-09-19T14:55:15;26.10;99.90
20726;DHT22;10524;48.132;8.518;2023-09-19T14:57:42;26.10;99.90
20726;DHT22;10524;48.132;8.518;2023-09-19T15:00:11;26.60;99.90
20726;DHT22;10524;48.132;8.518;2023-09-19T15:02:40;27.20;99.90
20726;DHT22;10524;48.132;8.518;2023-09-19T15:05:06;26.70;99.90
20726;DHT22;10524;48.132;8.518;2023-09-19T15:07:35;26.30;99.90
20726;DHT22;10524;48.132;8.518;2023-09-19T15:10:04;26.60;99.90
20726;DHT22;10524;48.132;8.518;2023-09-19T15:12:33;26.50;99.90
20726;DHT22;10524;48.132;8.518;2023-09-19T15:14:58;26.80;99.90
20726;DHT22;10524;48.132;8.518;2023-09-19T15:17:24;26.80;99.90
20726;DHT22;10524;48.132;8.518;2023-09-19T15:19:51;26.40;99.90
20726;DHT22;10524;48.132;8.518;2023-09-19T15:22:17;26.00;99.90
20726;DHT22;10524;48.132;8.518;2023-09-19T15:24:42;25.50;99.90
20726;DHT22;10524;48.132;8.518;2023-09-19T15:27:08;25.50;99.90
20726;DHT22;10524;48.132;8.518;2023-09-19T15:29:34;25.60;99.90
20726;DHT22;10524;48.132;8.518;2023-09-19T15:32:00;25.10;99.90
20726;DHT22;10524;48.132;8.518;2023-09-19T15:34:28;24.60;99.90
20726;DHT22;10524;48.132;8.518;2023-09-19T15:36:55;24.30;99.90
20726;DHT22;10524;48.132;8.518;2023-09-19T15:39:21;24.40;99.90
20726;DHT22;10524;48.132;8.518;2023-09-19T15:41:48;25.00;99.90
20726;DHT22;10524;48.132;8.518;2023-09-19T15:44:19;25.30;99.90
20726;DHT22;10524;48.132;8.518;2023-09-19T15:46:45;24.90;99.90
20726;DHT22;10524;48.132;8.518;2023-09-19T15:49:11;24.60;99.90
20726;DHT22;10524;48.132;8.518;2023-09-19T15:51:37;24.30;99.90
20726;DHT22;10524;48.132;8.518;2023-09-19T15:54:08;24.10;99.90
20726;DHT22;10524;48.132;8.518;2023-09-19T15:56:35;23.90;99.90
20726;DHT22;10524;48.132;8.518;2023-09-19T15:59:00;23.80;99.90
20726;DHT22;10524;48.132;8.518;2023-09-19T16:01:26;23.80;99.90
20726;DHT22;10524;48.132;8.518;2023-09-19T16:03:53;23.80;99.90
20726;DHT22;10524;48.132;8.518;2023-09-19T16:06:23;23.70;99.90
20726;DHT22;10524;48.132;8.518;2023-09-19T16:08:51;23.40;99.90
20726;DHT22;10524;48.132;8.518;2023-09-19T16:11:18;22.90;99.90
20726;DHT22;10524;48.132;8.518;2023-09-19T16:13:46;22.40;99.90
20726;DHT22;10524;48.132;8.518;2023-09-19T16:16:12;22.00;99.90
20726;DHT22;10524;48.132;8.518;2023-09-19T16:18:40;21.90;99.90
20726;DHT22;10524;48.132;8.518;2023-09-19T16:21:06;21.70;99.90
20726;DHT22;10524;48.132;8.518;2023-09-19T16:23:36;21.70;99.90
20726;DHT22;10524;48.132;8.518;2023-09-19T16:26:07;21.80;99.90
20726;DHT22;10524;48.132;8.518;2023-09-19T16:28:36;21.60;99.90
20726;DHT22;10524;48.132;8.518;2023-09-19T16:31:03;21.40;99.90
20726;DHT22;10524;48.132;8.518;2023-09-19T16:33:32;21.60;99.90
20726;DHT22;10524;48.132;8.518;2023-09-19T16:35:58;21.70;99.90
20726;DHT22;10524;48.132;8.518;2023-09-19T16:38:26;21.40;99.90
20726;DHT22;10524;48.132;8.518;2023-09-19T16:40:57;20.60;99.90
20726;DHT22;10524;48.132;8.518;2023-09-19T16:43:26;19.90;99.90
20726;DHT22;10524;48.132;8.518;2023-09-19T16:45:56;19.20;99.90
20726;DHT22;10524;48.132;8.518;2023-09-19T16:48:23;18.70;99.90